createdAt,value
2023-03-21T00:04:44.552Z,66.16
2023-03-21T00:10:29.754Z,66.65
2023-03-21T00:16:26.364Z,66.25
2023-03-21T00:28:05.133Z,66.23
2023-03-21T00:33:34.887Z,66.15
2023-03-21T00:39:06.465Z,66.48
2023-03-21T00:44:37.175Z,66.56
2023-03-21T00:50:05.242Z,66.30
2023-03-21T00:55:32.839Z,66.30
2023-03-21T01:01:02.770Z,66.39
2023-03-21T01:06:31.355Z,66.38
2023-03-21T01:11:58.839Z,66.00
2023-03-21T01:17:26.582Z,68.45
2023-03-21T01:22:54.141Z,66.98
2023-03-21T01:28:22.332Z,65.74
2023-03-21T01:33:49.871Z,64.89
2023-03-21T01:39:17.611Z,64.04
2023-03-21T01:45:01.456Z,63.86
2023-03-21T01:50:38.132Z,63.21
2023-03-21T01:56:32.865Z,63.08
2023-03-21T02:02:10.299Z,63.38
2023-03-21T02:07:46.172Z,63.41
2023-03-21T02:13:18.583Z,63.80
2023-03-21T02:19:31.933Z,64.00
2023-03-21T02:25:27.632Z,64.80
2023-03-21T02:31:17.419Z,64.41
2023-03-21T02:36:51.890Z,64.61
2023-03-21T02:42:44.975Z,64.76
2023-03-21T02:48:33.140Z,65.11
2023-03-21T02:54:45.256Z,65.44
2023-03-21T03:00:07.709Z,65.82
2023-03-21T03:05:49.601Z,65.88
2023-03-21T03:11:36.915Z,65.61
2023-03-21T03:17:10.007Z,65.83
2023-03-21T03:23:11.831Z,65.49
2023-03-21T03:28:55.097Z,65.66
2023-03-21T03:34:26.707Z,65.50
2023-03-21T03:40:07.249Z,65.73
2023-03-21T03:45:54.150Z,65.97
2023-03-21T03:51:51.342Z,65.35
2023-03-21T03:57:41.241Z,64.73
2023-03-21T04:03:10.107Z,65.07
2023-03-21T04:08:38.086Z,64.98
2023-03-21T04:14:06.068Z,64.84
2023-03-21T04:19:34.274Z,65.23
2023-03-21T04:25:02.088Z,65.23
2023-03-21T04:30:34.384Z,65.08
2023-03-21T04:36:25.196Z,65.02
2023-03-21T04:41:55.513Z,65.37
2023-03-21T04:47:23.211Z,65.08
2023-03-21T04:52:50.904Z,65.25
2023-03-21T04:58:20.584Z,65.13
2023-03-21T05:03:48.574Z,65.10
2023-03-21T05:09:16.292Z,65.21
2023-03-21T05:14:44.723Z,65.81
2023-03-21T05:20:12.174Z,65.50
2023-03-21T05:25:40.600Z,65.70
2023-03-21T05:31:19.267Z,65.10
2023-03-21T05:36:50.348Z,65.07
2023-03-21T05:42:19.052Z,64.48
2023-03-21T05:47:47.444Z,64.60
2023-03-21T05:53:15.209Z,64.38
2023-03-21T05:58:42.379Z,63.30
2023-03-21T06:04:11.813Z,62.99
2023-03-21T06:09:40.481Z,62.99
2023-03-21T06:15:09.178Z,62.78
2023-03-21T06:20:45.107Z,62.57
2023-03-21T06:26:13.409Z,62.14
2023-03-21T06:31:41.520Z,61.75
2023-03-21T06:37:09.635Z,61.00
2023-03-21T06:42:38.352Z,60.45
2023-03-21T06:48:11.614Z,59.33
2023-03-21T06:53:57.437Z,58.77
2023-03-21T06:59:36.678Z,58.18
2023-03-21T07:05:19.814Z,57.48
2023-03-21T07:10:47.898Z,57.19
2023-03-21T07:16:18.323Z,56.77
2023-03-21T07:21:46.034Z,57.30
2023-03-21T07:27:13.538Z,57.61
2023-03-21T07:32:41.259Z,58.38
2023-03-21T07:38:08.763Z,58.88
2023-03-21T07:43:39.184Z,58.63
2023-03-21T07:49:10.516Z,59.93
2023-03-21T07:54:38.893Z,59.66
2023-03-21T08:00:07.682Z,59.01
2023-03-21T08:05:40.909Z,59.30
2023-03-21T08:11:09.113Z,58.81
2023-03-21T08:16:36.953Z,58.27
2023-03-21T08:22:07.515Z,57.73
2023-03-21T08:27:35.527Z,56.42
2023-03-21T08:33:03.150Z,52.00
2023-03-21T08:38:33.620Z,51.67
2023-03-21T08:44:00.876Z,49.86
2023-03-21T08:49:29.009Z,49.21
2023-03-21T08:54:56.878Z,48.87
2023-03-21T09:00:24.298Z,48.32
2023-03-21T09:05:54.341Z,47.80
2023-03-21T09:11:22.062Z,48.11
2023-03-21T09:16:50.258Z,47.30
2023-03-21T09:22:18.188Z,47.13
2023-03-21T09:27:46.452Z,47.62
2023-03-21T09:33:19.833Z,47.29
2023-03-21T09:38:47.700Z,47.02
2023-03-21T09:44:21.857Z,46.35
2023-03-21T09:50:20.735Z,44.02
2023-03-21T09:55:48.391Z,42.34
2023-03-21T10:01:42.268Z,40.04
2023-03-21T10:07:20.892Z,38.69
2023-03-21T10:12:50.060Z,37.54
2023-03-21T10:18:25.318Z,37.93
2023-03-21T10:23:56.274Z,36.79
2023-03-21T10:29:31.924Z,34.46
2023-03-21T10:35:02.267Z,34.77
2023-03-21T10:40:30.844Z,33.86
2023-03-21T10:45:58.593Z,32.30
2023-03-21T10:51:31.289Z,32.06
2023-03-21T10:57:06.782Z,32.49
2023-03-21T11:02:38.390Z,32.81
2023-03-21T11:08:17.531Z,32.79
2023-03-21T11:13:45.503Z,32.78
2023-03-21T11:19:16.734Z,32.06
2023-03-21T11:24:51.685Z,32.06
2023-03-21T11:30:27.358Z,32.05
2023-03-21T11:36:00.574Z,33.25
2023-03-21T11:41:32.904Z,32.80
2023-03-21T11:47:01.077Z,34.01
2023-03-21T11:52:44.350Z,34.05
2023-03-21T11:58:15.208Z,34.02
2023-03-21T12:04:04.716Z,33.87
2023-03-21T12:09:44.101Z,33.94
2023-03-21T12:15:29.814Z,34.59
2023-03-21T12:21:25.956Z,33.40
2023-03-21T12:27:16.495Z,34.17
2023-03-21T12:32:44.751Z,33.35
2023-03-21T12:38:26.386Z,33.16
2023-03-21T12:44:16.301Z,32.80
2023-03-21T12:50:09.764Z,32.44
2023-03-21T12:55:39.825Z,31.10
2023-03-21T13:01:12.566Z,31.60
2023-03-21T13:06:41.555Z,32.64
2023-03-21T13:12:42.670Z,32.08
2023-03-21T13:18:27.767Z,32.68
2023-03-21T13:24:03.324Z,33.06
2023-03-21T13:29:53.952Z,34.63
2023-03-21T13:35:41.416Z,32.20
2023-03-21T13:41:18.016Z,32.85
2023-03-21T13:47:03.406Z,31.99
2023-03-21T13:52:31.935Z,31.92
2023-03-21T13:57:59.588Z,30.83
2023-03-21T14:03:33.598Z,31.75
2023-03-21T14:09:04.103Z,30.72
2023-03-21T14:14:40.708Z,32.00
2023-03-21T14:20:18.837Z,32.22
2023-03-21T14:25:52.272Z,32.68
2023-03-21T14:31:21.436Z,33.79
2023-03-21T14:36:57.667Z,34.22
2023-03-21T14:42:27.277Z,34.99
2023-03-21T14:48:06.400Z,35.20
2023-03-21T14:53:38.581Z,35.81
2023-03-21T14:59:05.946Z,36.41
2023-03-21T15:04:35.824Z,36.90
2023-03-21T15:10:07.790Z,38.38
2023-03-21T15:15:37.534Z,37.52
2023-03-21T15:21:13.771Z,37.05
2023-03-21T15:26:47.093Z,37.35
2023-03-21T15:32:24.394Z,37.63
2023-03-21T15:37:56.065Z,37.46
2023-03-21T15:43:25.990Z,38.54
2023-03-21T15:49:13.765Z,39.24
2023-03-21T15:54:48.897Z,39.37
2023-03-21T16:00:18.644Z,40.04
2023-03-21T16:06:26.006Z,40.55
2023-03-21T16:12:00.108Z,41.46
2023-03-21T16:17:38.078Z,42.04
2023-03-21T16:23:06.116Z,42.54
2023-03-21T16:28:33.015Z,43.24
2023-03-21T16:34:01.941Z,44.43
2023-03-21T16:39:29.028Z,45.12
2023-03-21T16:44:57.346Z,45.64
2023-03-21T16:50:37.964Z,45.73
2023-03-21T16:56:06.349Z,46.17
2023-03-21T17:01:39.765Z,47.03
2023-03-21T17:07:18.269Z,47.18
2023-03-21T17:12:46.152Z,47.79
2023-03-21T17:18:13.393Z,47.79
2023-03-21T17:23:40.982Z,48.04
2023-03-21T17:29:10.964Z,49.58
2023-03-21T17:34:38.078Z,50.08
2023-03-21T17:40:12.623Z,50.01
2023-03-21T17:45:40.666Z,52.63
2023-03-21T17:51:12.971Z,56.31
2023-03-21T17:56:41.899Z,56.96
2023-03-21T18:02:09.285Z,57.81
2023-03-21T18:08:07.831Z,57.94
2023-03-21T18:13:25.401Z,58.49
2023-03-21T18:18:54.162Z,58.86
2023-03-21T18:24:21.701Z,58.15
2023-03-21T18:30:28.798Z,58.73
2023-03-21T18:35:37.325Z,58.86
2023-03-21T18:41:05.517Z,59.11
2023-03-21T18:46:33.719Z,59.36
2023-03-21T18:52:02.059Z,59.57
2023-03-21T18:57:37.051Z,59.50
2023-03-21T19:03:18.775Z,60.13
2023-03-21T19:08:46.892Z,60.83
2023-03-21T19:14:16.464Z,60.27
2023-03-21T19:19:43.952Z,60.63
2023-03-21T19:25:13.233Z,60.58
2023-03-21T19:30:49.862Z,60.19
2023-03-21T19:36:22.507Z,60.17
2023-03-21T19:41:51.640Z,60.93
2023-03-21T19:47:21.581Z,60.31
2023-03-21T19:52:50.452Z,59.74
2023-03-21T19:58:22.754Z,60.05
2023-03-21T20:03:50.925Z,59.93
2023-03-21T20:15:17.035Z,60.04
2023-03-21T20:20:45.658Z,60.08
2023-03-21T20:26:14.920Z,61.40
2023-03-21T20:31:42.757Z,62.98
2023-03-21T20:37:12.548Z,63.76
2023-03-21T20:42:41.060Z,64.28
2023-03-21T20:48:09.177Z,65.09
2023-03-21T20:53:37.699Z,66.78
2023-03-21T20:59:17.346Z,67.50
2023-03-21T21:05:21.539Z,67.34
2023-03-21T21:11:02.717Z,66.74
2023-03-21T21:16:28.146Z,66.04
2023-03-21T21:21:55.990Z,66.90
2023-03-21T21:27:24.014Z,66.03
2023-03-21T21:32:52.174Z,66.23
2023-03-21T21:38:21.143Z,65.97
2023-03-21T21:43:49.403Z,65.87
2023-03-21T21:49:17.103Z,65.24
2023-03-21T21:54:46.135Z,64.86
2023-03-21T22:00:14.769Z,65.06
2023-03-21T22:05:44.547Z,64.94
2023-03-21T22:11:12.278Z,64.79
2023-03-21T22:16:39.851Z,64.96
2023-03-21T22:22:06.912Z,64.92
2023-03-21T22:27:34.341Z,64.81
2023-03-21T22:33:09.345Z,65.18
2023-03-21T22:38:38.353Z,65.31
2023-03-21T22:44:06.201Z,65.15
2023-03-21T22:49:34.509Z,65.27
2023-03-21T22:55:02.078Z,65.06
2023-03-21T23:00:29.414Z,65.18
2023-03-21T23:06:00.700Z,65.36
2023-03-21T23:11:27.910Z,64.77
2023-03-21T23:16:55.150Z,65.41
2023-03-21T23:22:22.435Z,65.24
2023-03-21T23:27:51.075Z,66.42
2023-03-21T23:33:17.990Z,65.53
2023-03-21T23:38:46.121Z,65.87
2023-03-21T23:44:13.384Z,65.90
2023-03-21T23:49:41.119Z,65.59
2023-03-21T23:55:09.053Z,65.48
